Terminal Aerodrome Forecast
Issued by NWS

Home | Current Version | Previous Version | Text Only | Print | Product List | Glossary On
Versions: 1 2 3 4 5 6 7 8 9 10 11 12 13 14 15 16
000
FTUS42 KTBW 041120
TAFPIE
TAF
KPIE 041120Z 0412/0512 VRB04KT P6SM FEW045 SCT250
     FM041400 13005KT P6SM FEW025 SCT250
     FM041800 28007KT P6SM VCTS SCT035CB BKN250
     FM042100 32008KT P6SM VCTS SCT035CB BKN250
     FM050000 VRB05KT P6SM FEW035 BKN250
     FM050300 11003KT P6SM SCT050 BKN250=

USA.gov is the U.S. government's official web portal to all federal, state and local government web resources and services.